Time;durP1;ratioP1;P1;durP2;ratioP2;P2;SDS_P1;SDS_P2;PMS_P1;PMS_P2;Temp;Humidity;BMP_temperature;BMP_pressure;BME280_temperature;BME280_humidity;BME280_pressure;Samples;Min_cycle;Max_cycle;Signal;HPM_P1;HPM_P2
2023/02/11 00:01:34;;;;;;;54.80;38.80;;;;;;;2.50;64.22;101851.58;110342;1260;22829;-78
2023/02/11 00:04:06;;;;;;;50.90;38.40;;;;;;;2.49;64.27;101843.84;110847;1260;21954;-79
2023/02/11 00:06:46;;;;;;;51.20;38.80;;;;;;;2.50;64.31;101841.95;110470;1262;21975;-79
2023/02/11 00:09:22;;;;;;;52.40;35.80;;;;;;;2.51;64.22;101838.70;110426;1265;22008;-77
2023/02/11 00:11:59;;;;;;;49.10;36.80;;;;;;;2.48;64.13;101834.54;110480;1265;22112;-79
2023/02/11 00:14:33;;;;;;;48.80;36.60;;;;;;;2.44;64.08;101836.00;110665;1261;21964;-78
2023/02/11 00:17:03;;;;;;;48.40;36.40;;;;;;;2.36;64.02;101829.15;110627;1260;23693;-79
2023/02/11 00:19:35;;;;;;;49.20;37.00;;;;;;;2.33;64.02;101828.23;110678;1260;23071;-79
2023/02/11 00:22:15;;;;;;;49.80;37.50;;;;;;;2.29;63.94;101832.11;110319;1265;22260;-79
2023/02/11 00:24:48;;;;;;;51.80;38.40;;;;;;;2.25;64.08;101829.45;110345;1264;22121;-79
2023/02/11 00:27:18;;;;;;;51.60;39.00;;;;;;;2.23;64.02;101832.98;110315;1265;23631;-79
2023/02/11 00:29:55;;;;;;;48.30;37.10;;;;;;;2.22;64.02;101829.21;110464;1265;21990;-79
2023/02/11 00:32:25;;;;;;;49.20;37.70;;;;;;;2.24;64.13;101828.03;110077;1265;21951;-79
2023/02/11 00:34:55;;;;;;;52.00;38.20;;;;;;;2.25;64.11;101826.35;110313;1265;22038;-80
2023/02/11 00:37:26;;;;;;;52.10;39.70;;;;;;;2.26;64.09;101819.14;110032;1265;22446;-80
2023/02/11 00:39:59;;;;;;;50.70;37.00;;;;;;;2.25;64.06;101811.21;110334;1265;21975;-80
2023/02/11 00:42:29;;;;;;;49.70;37.60;;;;;;;2.24;64.00;101806.41;109989;1265;21983;-80
2023/02/11 00:45:01;;;;;;;50.50;40.00;;;;;;;2.22;64.10;101806.88;110270;1265;22593;-79
2023/02/11 00:47:35;;;;;;;51.20;40.10;;;;;;;2.23;64.12;101802.25;110072;1265;23952;-79
2023/02/11 00:50:07;;;;;;;52.20;38.50;;;;;;;2.24;64.02;101796.27;109930;1261;21965;-79
2023/02/11 00:52:48;;;;;;;51.80;38.60;;;;;;;2.23;64.15;101789.88;110684;1261;21955;-78
2023/02/11 00:55:21;;;;;;;52.90;39.90;;;;;;;2.19;63.98;101782.09;110682;1261;21975;-78
2023/02/11 00:57:58;;;;;;;57.30;39.70;;;;;;;2.15;64.06;101775.31;110694;1261;22487;-79
2023/02/11 01:00:41;;;;;;;48.10;37.20;;;;;;;2.15;64.18;101774.95;110672;1261;21986;-78
2023/02/11 01:03:11;;;;;;;46.50;36.20;;;;;;;2.16;64.16;101769.15;110672;1262;22293;-78
2023/02/11 01:05:44;;;;;;;46.80;36.90;;;;;;;2.18;64.03;101759.56;110390;1261;22897;-78
2023/02/11 01:08:14;;;;;;;49.40;37.00;;;;;;;2.18;64.00;101747.02;109927;1267;23713;-79
2023/02/11 01:10:58;;;;;;;45.80;37.00;;;;;;;2.18;64.06;101731.39;109958;1266;24310;-79
2023/02/11 01:13:39;;;;;;;45.20;35.80;;;;;;;2.16;64.04;101726.21;110281;1262;21984;-78
2023/02/11 01:16:10;;;;;;;48.40;38.30;;;;;;;2.17;64.08;101721.23;110422;1262;23708;-78
2023/02/11 01:18:43;;;;;;;44.70;39.70;;;;;;;2.18;64.16;101718.33;110586;1261;22005;-79
2023/02/11 01:21:15;;;;;;;55.30;41.00;;;;;;;2.21;64.13;101715.65;110725;1261;23660;-78
2023/02/11 01:23:45;;;;;;;48.40;38.50;;;;;;;2.23;63.94;101712.42;110833;1261;21994;-79
2023/02/11 01:26:15;;;;;;;48.40;39.00;;;;;;;2.22;63.87;101713.45;110716;1257;21988;-79
2023/02/11 01:28:46;;;;;;;56.20;40.20;;;;;;;2.17;63.76;101714.38;110836;1244;21962;-81
2023/02/11 01:31:16;;;;;;;49.80;38.30;;;;;;;2.13;63.85;101714.98;111273;1256;21983;-82
2023/02/11 01:33:50;;;;;;;46.60;36.20;;;;;;;2.13;63.89;101710.00;111028;1256;22036;-80
2023/02/11 01:36:22;;;;;;;49.50;35.50;;;;;;;2.13;63.85;101704.52;111338;1256;21971;-79
2023/02/11 01:38:52;;;;;;;50.90;36.90;;;;;;;2.11;63.79;101696.92;111182;1256;21983;-79
2023/02/11 01:41:22;;;;;;;42.10;33.70;;;;;;;2.12;63.88;101696.60;111039;1255;22020;-80
2023/02/11 01:43:54;;;;;;;45.30;34.90;;;;;;;2.14;64.00;101698.34;110703;1262;22019;-79
2023/02/11 01:46:51;;;;;;;46.60;34.70;;;;;;;2.14;63.97;101693.89;110698;1262;23042;-79
2023/02/11 01:49:30;;;;;;;42.60;34.50;;;;;;;2.13;64.03;101685.95;110048;1268;22853;-79
2023/02/11 01:52:38;;;;;;;46.00;33.30;;;;;;;2.13;63.95;101677.90;109975;1268;21976;-78
2023/02/11 01:58:06;;;;;;;45.90;34.50;;;;;;;2.03;64.14;101660.53;110128;1268;23479;-81
2023/02/11 02:00:40;;;;;;;43.70;32.90;;;;;;;2.02;64.19;101643.70;110236;1268;21992;-79
2023/02/11 02:03:21;;;;;;;42.60;34.10;;;;;;;2.03;64.15;101629.63;110032;1269;21982;-80
2023/02/11 02:06:05;;;;;;;44.70;37.10;;;;;;;2.06;64.24;101611.48;109957;1269;21978;-79
2023/02/11 02:09:14;;;;;;;44.90;35.60;;;;;;;2.10;64.06;101601.26;109968;1269;21992;-78
2023/02/11 02:11:45;;;;;;;46.90;35.70;;;;;;;2.13;64.04;101590.30;109104;1276;22987;-78
2023/02/11 02:14:25;;;;;;;49.30;38.10;;;;;;;2.18;64.11;101586.08;108926;1281;21993;-78
2023/02/11 02:16:58;;;;;;;47.50;36.90;;;;;;;2.23;64.01;101587.70;108557;1281;23735;-79
2023/02/11 02:20:10;;;;;;;42.40;35.50;;;;;;;2.26;63.99;101589.65;108580;1281;22190;-79
2023/02/11 02:23:16;;;;;;;45.30;34.60;;;;;;;2.29;63.93;101594.69;109157;1275;22002;-79
2023/02/11 02:26:31;;;;;;;41.30;33.60;;;;;;;2.31;63.82;101582.35;109396;1270;22912;-79
2023/02/11 02:29:50;;;;;;;38.70;32.20;;;;;;;2.31;63.83;101576.86;109743;1270;21988;-80
2023/02/11 02:32:48;;;;;;;44.40;36.40;;;;;;;2.29;63.73;101576.32;109988;1265;22664;-80
2023/02/11 02:35:59;;;;;;;41.40;31.80;;;;;;;2.29;63.67;101574.59;110504;1263;23058;-80
2023/02/11 02:39:08;;;;;;;45.30;34.10;;;;;;;2.31;63.65;101587.00;109188;1274;23715;-79
2023/02/11 02:41:44;;;;;;;40.50;33.70;;;;;;;2.36;63.53;101598.58;109303;1275;21986;-81
2023/02/11 02:44:17;;;;;;;47.10;33.70;;;;;;;2.40;63.39;101600.35;109088;1274;23726;-78
2023/02/11 02:46:49;;;;;;;38.50;33.60;;;;;;;2.44;63.41;101616.91;109089;1275;22005;-78
2023/02/11 02:49:22;;;;;;;42.20;32.30;;;;;;;2.48;63.32;101631.74;109834;1268;22003;-79
2023/02/11 02:52:19;;;;;;;43.40;33.70;;;;;;;2.50;63.36;101645.38;109475;1272;23038;-80
2023/02/11 02:55:11;;;;;;;40.50;32.50;;;;;;;2.49;63.19;101654.64;109731;1272;22068;-78
2023/02/11 02:58:16;;;;;;;39.50;34.00;;;;;;;2.46;63.22;101662.15;109915;1268;22632;-79
2023/02/11 03:01:08;;;;;;;43.40;33.00;;;;;;;2.46;63.18;101663.01;110081;1268;23609;-78
2023/02/11 03:04:05;;;;;;;45.90;36.20;;;;;;;2.47;63.13;101654.79;110061;1267;23592;-78
2023/02/11 03:07:02;;;;;;;55.70;40.10;;;;;;;2.48;63.05;101636.23;110231;1267;21994;-78
2023/02/11 03:09:51;;;;;;;42.00;32.90;;;;;;;2.44;62.86;101616.58;110055;1264;23705;-75
2023/02/11 03:12:26;;;;;;;46.50;35.90;;;;;;;2.41;62.94;101592.30;110497;1263;21972;-77
2023/02/11 03:15:01;;;;;;;43.40;34.70;;;;;;;2.42;63.16;101557.09;110733;1255;23023;-77
2023/02/11 03:17:40;;;;;;;42.40;34.00;;;;;;;2.43;63.23;101538.23;111060;1255;21971;-77
2023/02/11 03:20:18;;;;;;;42.60;33.60;;;;;;;2.45;63.33;101540.66;111014;1256;22972;-79
2023/02/11 03:23:58;;;;;;;42.60;34.10;;;;;;;2.47;63.26;101553.73;110986;1256;23690;-79
2023/02/11 03:26:50;;;;;;;43.90;33.90;;;;;;;2.42;63.20;101541.29;109461;1262;22972;-78
2023/02/11 03:29:50;;;;;;;43.70;35.00;;;;;;;2.38;63.14;101538.30;110814;1262;23055;-79
2023/02/11 03:33:16;;;;;;;44.30;35.90;;;;;;;2.34;63.22;101538.25;109538;1269;21990;-77
2023/02/11 03:36:16;;;;;;;49.10;38.90;;;;;;;2.31;63.12;101528.77;109966;1269;22473;-78
2023/02/11 03:38:53;;;;;;;47.80;38.10;;;;;;;2.27;63.08;101522.85;109537;1269;22006;-79
2023/02/11 03:41:25;;;;;;;44.40;37.10;;;;;;;2.27;63.17;101519.77;108990;1274;22524;-79
2023/02/11 03:43:58;;;;;;;44.80;36.60;;;;;;;2.27;63.12;101516.50;108684;1280;22001;-78
2023/02/11 03:46:38;;;;;;;42.50;35.70;;;;;;;2.26;63.03;101517.52;108740;1280;21996;-79
2023/02/11 03:49:20;;;;;;;45.40;38.40;;;;;;;2.25;63.23;101520.25;108337;1280;23099;-80
2023/02/11 03:51:56;;;;;;;46.90;39.40;;;;;;;2.30;63.30;101504.70;108586;1281;22000;-79
2023/02/11 03:54:31;;;;;;;49.20;39.70;;;;;;;2.29;63.01;101498.66;108728;1281;21991;-78
2023/02/11 03:57:18;;;;;;;45.40;38.50;;;;;;;2.29;63.17;101497.29;108715;1280;22003;-80
2023/02/11 04:00:19;;;;;;;43.10;36.50;;;;;;;2.27;63.03;101491.61;109021;1275;23702;-79
2023/02/11 04:02:54;;;;;;;47.50;37.40;;;;;;;2.23;63.15;101486.56;109967;1265;23026;-79
2023/02/11 04:05:24;;;;;;;42.80;36.00;;;;;;;2.26;63.10;101488.14;110393;1263;22050;-79
2023/02/11 04:07:54;;;;;;;46.00;37.70;;;;;;;2.29;63.20;101485.95;109774;1266;22023;-78
2023/02/11 04:10:27;;;;;;;44.10;37.70;;;;;;;2.32;63.15;101474.14;110227;1266;23717;-79
2023/02/11 04:13:13;;;;;;;64.80;50.80;;;;;;;2.32;63.06;101469.17;110266;1265;21993;-79
2023/02/11 04:15:47;;;;;;;66.60;53.80;;;;;;;2.30;63.05;101467.42;110489;1265;21974;-79
2023/02/11 04:18:17;;;;;;;65.60;54.70;;;;;;;2.28;62.94;101458.80;109860;1268;21975;-79
2023/02/11 04:20:50;;;;;;;50.30;44.90;;;;;;;2.17;62.79;101442.66;110083;1265;22084;-79
2023/02/11 04:23:19;;;;;;;46.30;38.90;;;;;;;2.15;62.83;101445.40;110046;1266;23610;-79
2023/02/11 04:25:58;;;;;;;46.50;38.80;;;;;;;2.09;63.03;101441.02;110280;1261;21981;-78
2023/02/11 04:28:30;;;;;;;47.80;38.70;;;;;;;2.04;63.00;101440.94;110235;1261;23603;-78
2023/02/11 04:31:06;;;;;;;;;;;;;;;1.99;63.07;101441.22;110261;1266;21968;-78
2023/02/11 04:33:39;;;;;;;45.60;37.10;;;;;;;1.88;63.33;101439.85;110166;1266;23037;-78
2023/02/11 04:36:10;;;;;;;46.30;38.50;;;;;;;1.88;63.34;101421.48;110118;1262;22373;-79
2023/02/11 04:38:48;;;;;;;48.90;39.60;;;;;;;1.88;63.42;101415.30;110472;1251;22408;-80
2023/02/11 04:41:24;;;;;;;45.40;37.60;;;;;;;1.89;63.46;101406.90;110410;1263;22398;-78
2023/02/11 04:44:00;;;;;;;47.80;37.10;;;;;;;1.90;63.50;101406.23;110011;1266;23719;-78
2023/02/11 04:46:30;;;;;;;46.70;38.90;;;;;;;1.92;63.61;101407.81;110230;1260;22435;-78
2023/02/11 04:49:02;;;;;;;44.40;37.60;;;;;;;1.91;63.51;101412.09;110610;1259;21998;-79
2023/02/11 04:51:33;;;;;;;41.10;36.20;;;;;;;1.90;63.55;101410.85;110976;1260;23746;-78
2023/02/11 04:54:03;;;;;;;53.10;42.40;;;;;;;1.86;63.61;101410.63;110636;1260;22030;-80
2023/02/11 04:56:38;;;;;;;51.70;45.80;;;;;;;1.86;63.77;101410.62;110807;1261;21974;-79
2023/02/11 04:59:19;;;;;;;117.90;83.70;;;;;;;1.86;63.76;101412.17;110928;1256;22303;-79
2023/02/11 05:02:04;;;;;;;55.70;46.20;;;;;;;1.88;63.77;101415.46;111325;1256;21978;-81
2023/02/11 05:04:45;;;;;;;47.80;42.30;;;;;;;1.90;63.86;101411.38;110332;1262;21962;-80
2023/02/11 05:07:23;;;;;;;48.20;37.70;;;;;;;1.93;63.97;101406.27;110548;1262;22083;-80
2023/02/11 05:10:15;;;;;;;42.10;37.20;;;;;;;1.98;64.06;101412.35;110623;1262;23785;-80
2023/02/11 05:13:02;;;;;;;48.20;39.70;;;;;;;2.02;63.92;101409.67;110664;1262;22002;-82
2023/02/11 05:15:58;;;;;;;80.20;64.90;;;;;;;2.05;64.00;101400.78;110736;1263;22016;-81
2023/02/11 05:18:52;;;;;;;55.80;47.10;;;;;;;2.10;63.95;101399.81;110842;1262;22012;-80
2023/02/11 05:21:40;;;;;;;46.30;39.90;;;;;;;2.14;64.02;101400.04;109664;1271;21993;-79
2023/02/11 05:24:34;;;;;;;48.70;39.70;;;;;;;2.14;64.02;101400.73;110707;1265;21978;-78
2023/02/11 05:27:08;;;;;;;45.40;38.10;;;;;;;2.15;64.07;101397.14;109808;1269;21986;-79
2023/02/11 05:29:49;;;;;;;43.00;37.00;;;;;;;2.18;64.06;101388.77;109900;1270;21978;-79
2023/02/11 05:32:30;;;;;;;46.60;38.00;;;;;;;2.21;63.96;101392.92;109846;1270;22056;-79
2023/02/11 05:35:09;;;;;;;45.90;38.10;;;;;;;2.24;63.97;101398.96;109965;1270;23758;-79
2023/02/11 05:37:50;;;;;;;42.80;37.80;;;;;;;2.25;63.96;101396.23;110103;1269;23717;-79
2023/02/11 05:40:45;;;;;;;46.80;37.60;;;;;;;2.28;64.05;101396.28;110369;1264;23623;-79
2023/02/11 05:43:18;;;;;;;45.90;38.30;;;;;;;2.35;64.07;101392.41;109693;1270;21993;-79
2023/02/11 05:45:57;;;;;;;42.40;37.30;;;;;;;2.40;64.07;101390.59;109940;1267;22019;-79
2023/02/11 05:48:40;;;;;;;47.40;37.80;;;;;;;2.47;64.05;101390.34;110661;1267;22011;-80
2023/02/11 05:51:29;;;;;;;;;;;;;;;;;;;;;
2023/02/11 05:54:02;;;;;;;45.40;39.00;;;;;;;2.54;63.99;101395.58;110068;1268;21980;-79
2023/02/11 05:56:44;;;;;;;43.00;38.20;;;;;;;2.58;64.07;101396.13;109764;1268;22089;-78
2023/02/11 05:59:33;;;;;;;45.70;39.60;;;;;;;2.58;63.99;101392.52;109323;1273;23749;-79
2023/02/11 06:02:06;;;;;;;45.90;39.90;;;;;;;2.58;63.97;101391.83;108897;1280;22021;-80
2023/02/11 06:04:57;;;;;;;47.80;38.60;;;;;;;2.56;63.95;101384.61;108603;1279;22062;-80
2023/02/11 06:07:51;;;;;;;48.10;40.40;;;;;;;2.56;64.34;101382.19;109085;1272;22039;-80
2023/02/11 06:10:31;;;;;;;50.00;39.90;;;;;;;2.57;64.29;101382.20;109564;1272;22004;-80
2023/02/11 06:13:10;;;;;;;46.10;39.30;;;;;;;2.61;64.29;101371.77;109757;1266;23701;-79
2023/02/11 06:16:10;;;;;;;52.20;41.60;;;;;;;2.63;64.39;101363.19;110033;1266;22989;-79
2023/02/11 06:18:43;;;;;;;48.80;41.60;;;;;;;2.67;64.43;101357.39;110784;1260;21959;-79
2023/02/11 06:21:35;;;;;;;52.60;42.00;;;;;;;2.69;64.46;101348.64;110731;1260;22021;-79
2023/02/11 06:24:27;;;;;;;50.00;41.00;;;;;;;2.67;64.70;101343.64;110947;1260;21966;-78
2023/02/11 06:27:50;;;;;;;45.70;39.30;;;;;;;2.63;64.89;101339.14;110251;1263;21969;-79
2023/02/11 06:30:24;;;;;;;46.30;41.00;;;;;;;2.64;65.20;101333.64;110393;1265;22854;-80
2023/02/11 06:33:23;;;;;;;49.10;41.70;;;;;;;2.66;65.33;101325.77;110329;1265;23702;-80
2023/02/11 06:36:48;;;;;;;;;;;;;;;;;;;;;
2023/02/11 06:40:09;;;;;;;45.10;40.30;;;;;;;2.62;65.77;101319.70;110100;1267;24772;-79
2023/02/11 06:43:18;;;;;;;;;;;;;;;;;;;;;
2023/02/11 06:46:01;;;;;;;50.60;41.20;;;;;;;2.60;66.09;101320.02;110025;1269;21990;-79
2023/02/11 06:48:39;;;;;;;47.90;41.00;;;;;;;2.62;66.34;101326.56;109673;1268;23666;-80
2023/02/11 06:51:23;;;;;;;47.10;41.20;;;;;;;2.64;66.44;101326.94;109822;1270;21984;-79
2023/02/11 06:54:49;;;;;;;51.50;42.20;;;;;;;2.66;66.59;101331.95;110027;1267;22016;-79
2023/02/11 06:58:01;;;;;;;44.70;39.00;;;;;;;2.66;66.72;101331.27;109569;1272;22144;-80
2023/02/11 07:00:51;;;;;;;45.80;40.90;;;;;;;2.67;66.75;101329.71;109258;1275;22438;-79
2023/02/11 07:03:49;;;;;;;46.50;39.20;;;;;;;2.67;66.83;101331.09;109114;1274;22040;-79
2023/02/11 07:06:26;;;;;;;54.40;43.20;;;;;;;2.72;67.06;101315.85;109562;1270;21979;-79
2023/02/11 07:09:09;;;;;;;52.10;40.80;;;;;;;2.76;67.06;101312.96;109844;1263;21998;-80
2023/02/11 07:11:54;;;;;;;45.20;40.30;;;;;;;2.79;67.05;101313.67;110076;1267;22051;-82
2023/02/11 07:14:35;;;;;;;50.30;41.70;;;;;;;2.78;67.11;101321.23;109616;1271;22657;-79
2023/02/11 07:17:16;;;;;;;52.20;44.80;;;;;;;2.80;67.24;101320.21;109555;1271;21952;-79
2023/02/11 07:19:54;;;;;;;50.10;42.30;;;;;;;2.81;67.28;101319.54;109670;1271;22549;-79
2023/02/11 07:22:30;;;;;;;56.00;46.70;;;;;;;2.79;67.39;101318.48;109205;1277;22475;-80
2023/02/11 07:25:10;;;;;;;51.20;45.70;;;;;;;2.80;67.54;101320.39;109346;1271;23082;-81
2023/02/11 07:27:46;;;;;;;54.90;46.00;;;;;;;2.83;67.63;101323.52;109052;1273;22147;-80
2023/02/11 07:30:42;;;;;;;52.70;45.70;;;;;;;2.85;67.61;101329.38;108918;1278;21992;-82
2023/02/11 07:33:19;;;;;;;51.60;46.00;;;;;;;2.86;67.69;101323.03;109063;1276;21989;-80
2023/02/11 07:36:11;;;;;;;58.00;47.90;;;;;;;2.88;67.66;101320.64;109194;1275;21993;-80
2023/02/11 07:38:51;;;;;;;56.60;49.00;;;;;;;2.87;67.82;101321.84;109397;1275;22008;-82
2023/02/11 07:41:28;;;;;;;53.90;46.70;;;;;;;2.87;68.16;101324.08;109612;1270;22005;-77
2023/02/11 07:44:06;;;;;;;54.00;46.60;;;;;;;2.91;68.09;101321.70;109613;1257;21978;-78
2023/02/11 07:46:43;;;;;;;57.40;49.00;;;;;;;2.97;68.29;101329.66;110028;1266;22024;-75
2023/02/11 07:49:18;;;;;;;61.80;48.60;;;;;;;3.01;68.21;101324.02;110264;1266;22577;-77
2023/02/11 07:51:52;;;;;;;64.60;48.30;;;;;;;3.07;68.44;101329.25;109897;1266;21987;-76
2023/02/11 07:54:22;;;;;;;64.30;52.00;;;;;;;3.14;68.48;101329.82;110227;1259;23036;-80
2023/02/11 07:56:56;;;;;;;62.40;51.80;;;;;;;3.16;68.37;101327.95;110806;1258;22007;-75
2023/02/11 07:59:42;;;;;;;59.90;49.60;;;;;;;3.18;68.44;101317.46;110804;1259;21964;-75
2023/02/11 08:02:17;;;;;;;56.60;46.60;;;;;;;3.21;68.57;101311.98;110775;1259;23048;-75
2023/02/11 08:04:51;;;;;;;59.00;48.80;;;;;;;3.27;68.85;101308.40;110744;1256;22919;-75
2023/02/11 08:07:21;;;;;;;59.10;48.50;;;;;;;3.35;68.79;101309.84;111010;1256;23059;-75
2023/02/11 08:09:54;;;;;;;58.80;48.30;;;;;;;3.39;68.68;101298.52;111078;1251;21982;-75
2023/02/11 08:12:30;;;;;;;57.10;47.90;;;;;;;3.44;68.84;101296.16;111372;1255;21961;-75
2023/02/11 08:15:06;;;;;;;59.50;47.90;;;;;;;3.53;68.91;101295.16;111010;1254;21962;-74
2023/02/11 08:17:36;;;;;;;57.30;46.60;;;;;;;3.58;68.88;101299.16;111205;1254;23106;-75
2023/02/11 08:20:10;;;;;;;60.40;49.60;;;;;;;3.62;68.75;101295.23;110545;1260;23039;-75
2023/02/11 08:22:44;;;;;;;59.70;49.10;;;;;;;3.65;68.62;101293.36;110256;1264;22741;-75
2023/02/11 08:25:21;;;;;;;54.10;47.70;;;;;;;3.70;68.66;101304.92;110265;1264;21982;-76
2023/02/11 08:27:54;;;;;;;59.60;48.00;;;;;;;3.75;68.76;101308.05;109855;1266;21984;-76
2023/02/11 08:30:26;;;;;;;53.30;46.40;;;;;;;3.81;68.79;101306.17;109998;1268;23042;-76
2023/02/11 08:32:56;;;;;;;51.00;45.60;;;;;;;3.84;68.60;101304.64;109051;1275;22013;-75
2023/02/11 08:35:26;;;;;;;50.20;45.10;;;;;;;3.83;68.50;101304.98;108768;1275;23719;-75
2023/02/11 08:38:00;;;;;;;51.00;45.00;;;;;;;3.86;68.65;101300.52;109297;1271;22895;-78
2023/02/11 08:40:36;;;;;;;51.10;45.60;;;;;;;3.91;68.66;101289.19;109272;1268;23570;-75
2023/02/11 08:43:05;;;;;;;57.60;51.10;;;;;;;3.92;68.63;101285.58;109683;1268;21993;-74
2023/02/11 08:45:37;;;;;;;51.70;45.50;;;;;;;3.95;68.78;101282.81;110393;1260;21970;-75
2023/02/11 08:48:20;;;;;;;51.90;45.30;;;;;;;4.00;68.86;101280.77;110714;1260;22619;-78
2023/02/11 08:50:58;;;;;;;51.30;45.70;;;;;;;4.09;69.04;101278.92;110810;1260;22378;-76
2023/02/11 08:53:29;;;;;;;64.60;51.10;;;;;;;4.15;69.01;101269.64;110302;1266;21984;-75
2023/02/11 08:55:59;;;;;;;61.80;50.70;;;;;;;4.15;68.71;101254.14;110182;1266;23717;-76
2023/02/11 08:58:32;;;;;;;58.90;51.50;;;;;;;4.20;68.73;101250.02;109723;1267;21983;-77
2023/02/11 09:01:14;;;;;;;58.10;50.00;;;;;;;4.24;68.93;101241.06;109719;1263;23071;-76
2023/02/11 09:03:59;;;;;;;57.50;47.80;;;;;;;4.27;68.92;101238.48;110264;1263;24380;-76
2023/02/11 09:06:31;;;;;;;54.10;45.50;;;;;;;4.29;69.00;101250.21;109107;1270;21990;-76
2023/02/11 09:09:05;;;;;;;52.10;46.40;;;;;;;4.32;68.86;101248.49;109510;1271;21985;-76
2023/02/11 09:11:39;;;;;;;57.80;51.30;;;;;;;4.36;68.94;101257.81;109860;1268;22497;-75
2023/02/11 09:14:22;;;;;;;59.70;53.10;;;;;;;4.39;68.93;101260.92;109470;1273;21984;-79
2023/02/11 09:17:03;;;;;;;66.00;54.30;;;;;;;4.39;68.65;101248.34;109994;1266;21988;-80
2023/02/11 09:19:34;;;;;;;63.00;56.20;;;;;;;4.35;68.53;101235.05;110801;1266;22989;-79
2023/02/11 09:22:19;;;;;;;63.10;55.10;;;;;;;4.33;68.53;101232.98;110389;1266;23733;-79
2023/02/11 09:25:02;;;;;;;56.50;50.50;;;;;;;4.28;68.46;101244.87;110439;1262;23048;-79
2023/02/11 09:27:36;;;;;;;63.10;55.60;;;;;;;4.27;68.69;101242.61;111078;1260;21989;-79
2023/02/11 09:30:22;;;;;;;64.60;55.90;;;;;;;4.28;68.77;101246.23;110802;1256;21981;-79
2023/02/11 09:33:14;;;;;;;64.00;54.80;;;;;;;4.29;68.92;101237.63;110896;1255;21983;-79
2023/02/11 09:35:49;;;;;;;62.20;53.20;;;;;;;4.28;68.99;101238.48;111179;1255;22972;-80
2023/02/11 09:38:30;;;;;;;60.40;51.50;;;;;;;4.31;69.03;101243.15;111214;1255;22873;-78
2023/02/11 09:41:07;;;;;;;61.20;52.00;;;;;;;4.34;69.13;101247.64;111232;1255;21964;-80
2023/02/11 09:43:48;;;;;;;58.30;51.90;;;;;;;4.36;69.08;101240.92;111416;1255;21960;-79
2023/02/11 09:46:45;;;;;;;62.50;52.80;;;;;;;4.35;69.04;101240.40;111252;1254;23779;-80
2023/02/11 09:49:36;;;;;;;61.20;52.40;;;;;;;4.27;69.13;101238.31;111071;1256;21987;-80
2023/02/11 09:52:47;;;;;;;62.00;53.10;;;;;;;4.21;69.30;101226.94;111128;1255;22499;-80
2023/02/11 09:55:32;;;;;;;63.60;55.70;;;;;;;4.19;69.60;101226.41;110813;1260;21971;-80
2023/02/11 09:58:35;;;;;;;63.90;56.90;;;;;;;4.20;69.69;101222.96;110043;1267;22465;-79
2023/02/11 10:01:47;;;;;;;61.20;54.60;;;;;;;4.21;69.75;101228.98;109486;1273;22690;-81
2023/02/11 10:05:09;;;;;;;64.00;54.00;;;;;;;4.19;69.79;101224.34;109133;1279;23176;-79
2023/02/11 10:08:15;;;;;;;58.80;52.40;;;;;;;4.12;69.85;101235.70;108613;1285;22081;-79
2023/02/11 10:11:09;;;;;;;63.10;51.90;;;;;;;4.11;69.98;101234.66;108215;1292;22018;-79
2023/02/11 10:14:32;;;;;;;62.60;54.10;;;;;;;4.10;70.22;101230.17;108175;1288;22017;-80
2023/02/11 10:17:37;;;;;;;67.40;58.10;;;;;;;4.12;70.46;101232.09;108872;1282;22757;-80
2023/02/11 10:20:24;;;;;;;62.70;53.80;;;;;;;4.11;70.41;101224.15;108957;1280;24425;-79
2023/02/11 10:23:24;;;;;;;62.90;54.90;;;;;;;4.10;70.51;101222.09;108933;1278;22010;-80
2023/02/11 10:29:43;;;;;;;63.30;54.10;;;;;;;4.18;70.99;101212.45;108829;1280;22015;-83
2023/02/11 10:33:14;;;;;;;63.40;56.50;;;;;;;4.27;71.00;101203.68;108706;1286;22019;-81
2023/02/11 10:36:13;;;;;;;57.80;51.50;;;;;;;4.33;70.91;101207.48;108755;1286;22082;-82
2023/02/11 10:39:26;;;;;;;60.50;54.20;;;;;;;4.36;70.97;101192.49;109030;1279;22014;-81
2023/02/11 10:42:14;;;;;;;64.10;53.70;;;;;;;4.40;71.07;101191.46;108993;1281;23065;-80
2023/02/11 10:45:45;;;;;;;61.40;54.70;;;;;;;4.48;71.17;101213.17;109303;1274;21992;-80
2023/02/11 10:49:07;;;;;;;68.70;56.80;;;;;;;4.47;71.02;101206.98;109502;1273;21985;-83
2023/02/11 10:51:42;;;;;;;71.60;58.90;;;;;;;4.48;70.98;101207.33;109722;1272;23154;-79
2023/02/11 10:54:23;;;;;;;73.00;60.00;;;;;;;4.50;70.78;101214.57;109489;1271;21988;-78
2023/02/11 10:57:01;;;;;;;86.50;65.50;;;;;;;4.48;70.85;101215.42;109773;1258;23056;-79
2023/02/11 10:59:39;;;;;;;71.40;62.60;;;;;;;4.52;70.93;101209.41;109716;1271;22095;-79
2023/02/11 11:02:33;;;;;;;73.90;64.70;;;;;;;4.51;70.75;101189.23;109371;1272;23658;-78
2023/02/11 11:05:28;;;;;;;76.90;66.90;;;;;;;4.49;70.82;101175.10;109488;1271;23804;-78
2023/02/11 11:08:11;;;;;;;70.80;63.10;;;;;;;4.50;70.90;101151.66;110229;1260;22041;-77
2023/02/11 11:11:08;;;;;;;72.90;64.90;;;;;;;4.50;71.02;101146.49;110287;1266;21988;-78
2023/02/11 11:13:52;;;;;;;72.60;63.60;;;;;;;4.52;71.04;101157.34;110746;1266;21966;-80
2023/02/11 11:16:28;;;;;;;74.60;63.10;;;;;;;4.56;71.16;101178.55;109999;1270;21989;-79
2023/02/11 11:19:07;;;;;;;77.00;64.20;;;;;;;4.57;71.08;101175.79;109450;1275;22165;-78
2023/02/11 11:21:54;;;;;;;69.10;57.60;;;;;;;4.58;71.00;101169.92;109411;1275;21994;-79
2023/02/11 11:24:47;;;;;;;70.20;60.60;;;;;;;4.59;71.10;101149.75;109894;1268;21989;-79
2023/02/11 11:27:32;;;;;;;70.40;60.20;;;;;;;4.57;71.17;101140.63;110171;1264;24319;-79
2023/02/11 11:30:44;;;;;;;72.40;60.50;;;;;;;4.58;71.39;101146.83;109196;1273;21988;-78
2023/02/11 11:33:32;;;;;;;63.50;55.90;;;;;;;4.66;71.49;101129.75;109109;1268;22001;-79
2023/02/11 11:36:29;;;;;;;62.30;55.60;;;;;;;4.72;71.56;101115.79;109455;1264;21970;-78
2023/02/11 11:39:24;;;;;;;67.50;57.70;;;;;;;4.78;71.62;101097.84;110554;1262;21999;-78
2023/02/11 11:43:06;;;;;;;61.50;54.70;;;;;;;4.80;71.55;101076.97;110703;1261;21963;-78
2023/02/11 11:46:11;;;;;;;64.60;55.60;;;;;;;4.80;71.62;101033.33;110398;1261;22667;-79
2023/02/11 11:48:53;;;;;;;62.60;55.90;;;;;;;4.84;71.65;101023.31;110727;1255;21978;-78
2023/02/11 11:51:38;;;;;;;67.10;57.70;;;;;;;4.92;71.76;101042.45;110989;1255;23593;-79
2023/02/11 11:54:24;;;;;;;61.30;53.60;;;;;;;4.97;71.70;101065.20;111020;1254;22408;-78
2023/02/11 11:57:24;;;;;;;71.80;58.00;;;;;;;5.00;71.49;101073.80;111146;1255;23596;-79
2023/02/11 12:00:46;;;;;;;75.10;56.10;;;;;;;5.00;71.53;101075.69;111333;1255;21946;-80
2023/02/11 12:03:58;;;;;;;58.30;51.80;;;;;;;5.02;71.62;101107.79;111787;1258;21953;-79
2023/02/11 12:07:42;;;;;;;52.60;47.00;;;;;;;5.03;71.62;101118.30;110873;1258;23589;-82
2023/02/11 12:11:11;;;;;;;53.40;47.60;;;;;;;5.02;71.61;101134.70;110736;1259;23022;-80
2023/02/11 12:14:55;;;;;;;56.50;47.80;;;;;;;5.01;71.48;101147.63;110819;1263;24397;-80
2023/02/11 12:19:03;;;;;;;53.50;46.40;;;;;;;5.02;71.62;101137.45;109898;1264;22013;-77
2023/02/11 12:23:00;;;;;;;;;;;;;;;;;;;;;
2023/02/11 12:26:40;;;;;;;53.40;45.40;;;;;;;5.09;71.72;101156.41;109456;1274;21978;-78
2023/02/11 12:30:06;;;;;;;54.20;48.10;;;;;;;5.07;71.69;101156.93;109175;1276;21987;-78
2023/02/11 12:33:51;;;;;;;51.50;44.70;;;;;;;5.13;71.74;101164.00;109396;1283;23788;-76
2023/02/11 12:37:06;;;;;;;53.90;45.80;;;;;;;5.19;71.69;101157.61;109070;1276;22071;-77
2023/02/11 12:40:32;;;;;;;59.70;46.10;;;;;;;5.25;71.65;101166.73;108665;1283;22482;-77
2023/02/11 12:43:40;;;;;;;67.80;50.00;;;;;;;5.28;71.47;101156.02;108882;1280;21881;-81
2023/02/11 12:46:41;;;;;;;49.50;44.10;;;;;;;5.31;71.48;101146.86;108668;1282;22773;-78
2023/02/11 12:50:15;;;;;;;51.50;44.90;;;;;;;5.33;71.50;101146.86;108536;1287;22805;-76